Time,TemperatureF,DewpointF,PressureIn,WindDirection,WindDirectionDegrees,WindSpeedMPH,WindSpeedGustMPH,Humidity,HourlyPrecipIn,Conditions,Clouds,dailyrainin,SoftwareType,DateUTC
2013-08-22 05:00:00,68.9,67.7,29.86,NW,315,0.0,0.0,96,0.00,,,0.00,Weather View 32 v70,2013-08-22 09:00:00,
2013-08-22 05:15:00,68.3,67.4,29.86,NW,315,0.0,0.0,97,0.00,,,0.00,Weather View 32 v70,2013-08-22 09:15:00,
2013-08-22 08:30:00,76.2,74.3,29.89,SW,225,2.0,2.0,94,0.00,,,0.00,Weather View 32 v70,2013-08-22 12:30:00,
2013-08-22 08:45:00,76.9,75.0,29.89,SW,225,3.0,4.0,94,0.00,,,0.00,Weather View 32 v70,2013-08-22 12:45:00,
2013-08-22 09:15:00,79.1,76.9,29.89,SW,225,2.0,4.0,93,0.00,,,0.00,Weather View 32 v70,2013-08-22 13:15:00,
2013-08-22 09:21:00,79.1,76.9,29.89,SW,225,2.0,4.0,93,0.00,,,0.00,Weather View 32 v70,2013-08-22 13:21:00,
2013-08-22 09:30:00,81.9,78.3,29.90,NW,315,6.0,6.0,89,0.00,,,0.00,Weather View 32 v70,2013-08-22 13:30:00,
2013-08-22 09:45:00,83.3,77.2,29.91,SW,225,2.0,6.0,82,0.00,,,0.00,Weather View 32 v70,2013-08-22 13:45:00,
2013-08-22 11:00:00,88.8,71.0,29.93,SW,225,2.0,9.0,56,0.00,,,0.00,Weather View 32 v70,2013-08-22 15:00:00,
2013-08-22 11:15:00,88.7,71.4,29.92,SW,225,2.0,9.0,57,0.00,,,0.00,Weather View 32 v70,2013-08-22 15:15:00,
2013-08-22 11:23:00,88.7,71.4,29.92,SW,225,2.0,9.0,57,0.00,,,0.00,Weather View 32 v70,2013-08-22 15:23:00,
2013-08-22 11:30:00,88.5,70.7,29.91,SW,225,2.0,9.0,56,0.00,,,0.00,Weather View 32 v70,2013-08-22 15:30:00,
2013-08-22 11:45:00,87.9,71.7,29.91,SW,225,2.0,9.0,59,0.00,,,0.00,Weather View 32 v70,2013-08-22 15:45:00,
2013-08-22 12:00:00,87.5,72.3,29.90,SW,225,2.0,9.0,61,0.00,,,0.00,Weather View 32 v70,2013-08-22 16:00:00,
2013-08-22 12:15:00,86.1,72.0,29.90,SW,225,5.0,7.0,63,0.00,,,0.00,Weather View 32 v70,2013-08-22 16:15:00,
2013-08-22 12:23:00,86.1,72.0,29.90,SW,225,5.0,7.0,63,0.00,,,0.00,Weather View 32 v70,2013-08-22 16:23:00,
2013-08-22 12:30:00,85.6,72.4,29.89,SW,225,2.0,7.0,65,0.00,,,0.00,Weather View 32 v70,2013-08-22 16:30:00,
2013-08-22 13:00:00,84.8,73.4,29.89,SW,225,3.0,7.0,69,0.00,,,0.00,Weather View 32 v70,2013-08-22 17:00:00,
2013-08-22 13:15:00,84.6,73.7,29.88,SW,225,2.0,5.0,70,0.00,,,0.00,Weather View 32 v70,2013-08-22 17:15:00,
2013-08-22 13:24:00,84.6,73.7,29.88,SW,225,2.0,5.0,70,0.00,,,0.00,Weather View 32 v70,2013-08-22 17:24:00,
2013-08-22 13:30:00,86.3,74.4,29.88,SW,225,2.0,5.0,68,0.00,,,0.00,Weather View 32 v70,2013-08-22 17:30:00,
2013-08-22 14:30:00,88.8,74.5,29.85,SW,225,2.0,5.0,63,0.00,,,0.00,Weather View 32 v70,2013-08-22 18:30:00,
2013-08-22 15:00:00,90.1,72.7,29.84,SW,225,6.0,9.0,57,0.00,,,0.00,Weather View 32 v70,2013-08-22 19:00:00,
2013-08-22 15:30:00,89.5,72.7,29.82,SW,225,6.0,9.0,58,0.00,,,0.00,Weather View 32 v70,2013-08-22 19:30:00,
2013-08-22 16:00:00,83.7,72.8,29.83,SW,225,5.0,8.0,70,0.00,,,0.00,Weather View 32 v70,2013-08-22 20:00:00,
2013-08-22 16:15:00,81.0,72.7,29.80,SW,225,7.0,8.0,76,0.00,,,0.00,Weather View 32 v70,2013-08-22 20:15:00,
2013-08-22 16:45:00,80.4,72.9,29.82,SW,225,2.0,7.0,78,0.00,,,0.00,Weather View 32 v70,2013-08-22 20:45:00,
2013-08-22 17:00:00,79.8,73.1,29.81,SW,225,0.0,7.0,80,0.00,,,0.00,Weather View 32 v70,2013-08-22 21:00:00,
2013-08-22 17:15:00,79.7,72.2,29.83,ENE,67,2.0,7.0,78,0.00,,,0.00,Weather View 32 v70,2013-08-22 21:15:00,
2013-08-22 17:30:00,84.5,70.0,29.80,ENE,67,2.0,7.0,62,0.00,,,0.00,Weather View 32 v70,2013-08-22 21:30:00,
2013-08-22 18:15:00,81.9,71.9,29.80,SW,225,2.0,7.0,72,0.00,,,0.00,Weather View 32 v70,2013-08-22 22:15:00,
2013-08-22 19:00:00,81.1,72.4,29.79,SW,225,6.0,6.0,75,0.00,,,0.00,Weather View 32 v70,2013-08-22 23:00:00,
2013-08-22 21:30:00,76.2,72.0,29.79,SW,225,1.0,1.0,87,0.00,,,0.00,Weather View 32 v70,2013-08-23 01:30:00,